createdAt,value
2019-03-04T00:00:43.291Z,57.25
2019-03-04T00:03:19.431Z,57.21
2019-03-04T00:05:54.060Z,57.18
2019-03-04T00:08:28.701Z,57.26
2019-03-04T00:11:01.720Z,57.62
2019-03-04T00:13:36.152Z,57.80
2019-03-04T00:16:10.774Z,57.78
2019-03-04T00:18:43.873Z,57.73
2019-03-04T00:21:18.292Z,57.87
2019-03-04T00:23:53.168Z,57.73
2019-03-04T00:26:27.745Z,57.64
2019-03-04T00:29:01.048Z,57.51
2019-03-04T00:31:35.319Z,57.79
2019-03-04T00:34:09.778Z,57.79
2019-03-04T00:36:42.861Z,57.97
2019-03-04T00:39:17.266Z,58.12
2019-03-04T00:41:51.864Z,57.87
2019-03-04T00:44:24.808Z,57.78
2019-03-04T00:46:59.129Z,57.58
2019-03-04T00:49:33.675Z,57.69
2019-03-04T00:52:08.276Z,57.69
2019-03-04T00:54:45.893Z,57.80
2019-03-04T00:57:18.822Z,57.69
2019-03-04T00:59:53.307Z,57.66
2019-03-04T01:02:28.129Z,57.58
2019-03-04T01:05:02.696Z,57.51
2019-03-04T01:07:37.123Z,57.51
2019-03-04T01:10:15.482Z,57.67
2019-03-04T01:12:49.287Z,57.67
2019-03-04T01:15:24.351Z,57.51
2019-03-04T01:17:58.868Z,57.54
2019-03-04T01:20:33.146Z,57.60
2019-03-04T01:23:07.910Z,57.18
2019-03-04T01:25:44.437Z,57.18
2019-03-04T01:28:28.782Z,57.42
2019-03-04T01:31:04.882Z,57.65
2019-03-04T01:33:39.924Z,57.73
2019-03-04T01:36:17.151Z,57.67
2019-03-04T01:38:51.787Z,57.73
2019-03-04T01:41:24.798Z,57.73
2019-03-04T01:43:59.294Z,57.77
2019-03-04T01:46:33.811Z,57.73
2019-03-04T01:49:06.893Z,57.70
2019-03-04T01:51:41.303Z,57.61
2019-03-04T01:54:15.947Z,57.33
2019-03-04T01:56:50.444Z,57.49
2019-03-04T01:59:24.962Z,57.36
2019-03-04T02:01:59.462Z,57.38
2019-03-04T02:04:36.937Z,57.38
2019-03-04T02:07:11.289Z,57.52
2019-03-04T02:09:45.800Z,57.42
2019-03-04T02:12:18.821Z,57.44
2019-03-04T02:14:53.123Z,57.36
2019-03-04T02:17:27.679Z,57.47
2019-03-04T02:20:02.286Z,57.29
2019-03-04T02:22:37.124Z,57.58
2019-03-04T02:25:14.286Z,57.61
2019-03-04T02:27:56.892Z,57.52
2019-03-04T02:30:29.973Z,57.42
2019-03-04T02:33:03.287Z,57.33
2019-03-04T02:35:37.787Z,57.22
2019-03-04T02:38:10.806Z,57.22
2019-03-04T02:40:44.960Z,56.96
2019-03-04T02:43:19.335Z,56.83
2019-03-04T02:45:53.732Z,56.76
2019-03-04T02:48:28.285Z,56.75
2019-03-04T02:51:02.748Z,56.80
2019-03-04T02:53:36.877Z,56.64
2019-03-04T02:57:46.370Z,56.47
2019-03-04T03:00:22.297Z,56.45
2019-03-04T03:02:56.954Z,56.29
2019-03-04T03:05:30.030Z,56.09
2019-03-04T03:08:04.300Z,56.15
2019-03-04T03:10:38.951Z,56.18
2019-03-04T03:13:11.812Z,56.05
2019-03-04T03:15:46.197Z,56.05
2019-03-04T03:18:20.706Z,55.66
2019-03-04T03:20:55.090Z,55.50
2019-03-04T03:23:29.864Z,55.27
2019-03-04T03:26:04.156Z,55.27
2019-03-04T03:28:39.842Z,55.15
2019-03-04T03:31:12.893Z,55.03
2019-03-04T03:33:45.873Z,54.64
2019-03-04T03:36:19.960Z,54.45
2019-03-04T03:38:54.454Z,54.35
2019-03-04T03:41:28.953Z,54.28
2019-03-04T03:44:03.390Z,54.21
2019-03-04T03:46:37.946Z,54.26
2019-03-04T03:49:13.419Z,54.30
2019-03-04T03:51:48.113Z,54.30
2019-03-04T03:54:29.140Z,54.25
2019-03-04T03:57:22.242Z,54.17
2019-03-04T04:00:04.675Z,54.58
2019-03-04T04:02:41.300Z,54.58
2019-03-04T04:05:17.993Z,54.78
2019-03-04T04:07:57.296Z,54.78
2019-03-04T04:10:35.287Z,54.71
2019-03-04T04:13:09.968Z,54.48
2019-03-04T04:15:44.772Z,54.46
2019-03-04T04:18:19.141Z,54.36
2019-03-04T04:20:53.712Z,54.10
2019-03-04T04:23:28.094Z,54.10
2019-03-04T04:26:04.364Z,53.33
2019-03-04T04:28:38.928Z,53.33
2019-03-04T04:31:12.005Z,52.68
2019-03-04T04:33:44.886Z,52.68
2019-03-04T04:36:18.023Z,52.66
2019-03-04T04:38:51.113Z,52.47
2019-03-04T04:41:23.810Z,52.39
2019-03-04T04:43:58.287Z,51.95
2019-03-04T04:46:55.597Z,51.95
2019-03-04T04:49:37.416Z,52.15
2019-03-04T04:52:12.689Z,52.19
2019-03-04T04:54:47.285Z,52.28
2019-03-04T04:57:21.828Z,52.07
2019-03-04T04:59:54.800Z,52.01
2019-03-04T05:02:29.286Z,51.80
2019-03-04T05:05:03.892Z,51.81
2019-03-04T05:07:58.785Z,51.82
2019-03-04T05:10:34.285Z,51.60
2019-03-04T05:13:09.005Z,51.54
2019-03-04T05:15:45.274Z,51.52
2019-03-04T05:18:19.891Z,51.59
2019-03-04T05:20:52.896Z,51.59
2019-03-04T05:23:26.007Z,51.45
2019-03-04T05:25:58.904Z,51.21
2019-03-04T05:28:33.286Z,50.41
2019-03-04T05:31:07.760Z,50.41
2019-03-04T05:33:40.695Z,50.16
2019-03-04T05:36:15.287Z,50.13
2019-03-04T05:38:50.110Z,49.91
2019-03-04T05:41:24.667Z,49.32
2019-03-04T05:43:59.281Z,49.32
2019-03-04T05:46:42.948Z,49.25
2019-03-04T05:49:17.287Z,48.99
2019-03-04T05:51:51.978Z,48.78
2019-03-04T05:54:26.711Z,48.75
2019-03-04T05:57:00.960Z,48.82
2019-03-04T05:59:35.758Z,48.72
2019-03-04T06:02:12.883Z,48.66
2019-03-04T06:04:48.526Z,48.75
2019-03-04T06:07:50.789Z,48.75
2019-03-04T06:10:32.601Z,48.92
2019-03-04T06:13:09.282Z,48.95
2019-03-04T06:15:43.409Z,48.75
2019-03-04T06:18:18.296Z,48.70
2019-03-04T06:20:52.928Z,48.62
2019-03-04T06:23:27.432Z,48.74
2019-03-04T06:26:01.968Z,48.61
2019-03-04T06:28:36.717Z,47.92
2019-03-04T06:31:09.709Z,47.50
2019-03-04T06:33:43.954Z,47.20
2019-03-04T06:36:18.294Z,47.18
2019-03-04T06:38:52.890Z,46.74
2019-03-04T06:41:27.303Z,46.67
2019-03-04T06:44:02.105Z,46.39
2019-03-04T06:46:36.686Z,46.08
2019-03-04T06:49:11.337Z,45.93
2019-03-04T06:51:50.960Z,45.57
2019-03-04T06:55:26.497Z,45.55
2019-03-04T06:58:04.139Z,45.47
2019-03-04T07:01:41.315Z,45.59
2019-03-04T07:04:24.463Z,45.33
2019-03-04T07:07:01.299Z,45.22
2019-03-04T07:09:36.320Z,45.22
2019-03-04T07:12:11.091Z,45.30
2019-03-04T07:14:45.872Z,45.04
2019-03-04T07:17:18.872Z,44.92
2019-03-04T07:20:07.770Z,44.72
2019-03-04T07:22:42.275Z,44.48
2019-03-04T07:25:17.983Z,44.08
2019-03-04T07:27:52.659Z,44.00
2019-03-04T07:30:27.284Z,44.00
2019-03-04T07:33:02.266Z,44.13
2019-03-04T07:35:36.947Z,43.98
2019-03-04T07:39:04.779Z,44.15
2019-03-04T07:41:40.669Z,43.99
2019-03-04T07:44:15.162Z,43.56
2019-03-04T07:46:49.793Z,43.80
2019-03-04T07:49:26.085Z,43.95
2019-03-04T07:52:00.450Z,43.41
2019-03-04T07:54:35.281Z,43.41
2019-03-04T07:57:09.878Z,43.42
2019-03-04T07:59:44.358Z,43.94
2019-03-04T08:02:20.609Z,43.80
2019-03-04T08:04:56.789Z,44.09
2019-03-04T08:07:44.299Z,44.28
2019-03-04T08:11:45.956Z,44.31
2019-03-04T08:14:28.124Z,44.29
2019-03-04T08:17:06.969Z,43.86
2019-03-04T08:19:47.328Z,43.40
2019-03-04T08:22:32.439Z,42.81
2019-03-04T08:25:04.952Z,42.68
2019-03-04T08:27:39.921Z,41.81
2019-03-04T08:30:20.956Z,41.81
2019-03-04T08:32:55.897Z,41.23
2019-03-04T08:35:32.578Z,41.22
2019-03-04T08:38:10.286Z,41.14
2019-03-04T08:40:45.358Z,40.72
2019-03-04T08:43:24.277Z,40.32
2019-03-04T08:46:04.562Z,39.16
2019-03-04T08:48:39.279Z,39.03
2019-03-04T08:51:13.936Z,39.03
2019-03-04T08:53:48.268Z,38.80
2019-03-04T08:56:22.935Z,35.35
2019-03-04T08:58:57.341Z,31.31
2019-03-04T09:02:10.771Z,31.31
2019-03-04T09:04:51.324Z,29.11
2019-03-04T09:07:31.076Z,26.70
2019-03-04T09:10:11.480Z,25.56
2019-03-04T09:12:48.497Z,25.56
2019-03-04T09:15:26.663Z,27.12
2019-03-04T09:18:03.275Z,27.49
2019-03-04T09:20:41.280Z,28.02
2019-03-04T09:23:20.315Z,27.68
2019-03-04T09:26:03.949Z,28.64
2019-03-04T09:28:39.273Z,29.01
2019-03-04T09:31:24.885Z,29.21
2019-03-04T09:34:02.726Z,29.21
2019-03-04T09:36:36.221Z,29.04
2019-03-04T09:39:12.619Z,29.42
2019-03-04T09:41:52.742Z,29.53
2019-03-04T09:44:26.276Z,27.99
2019-03-04T09:47:01.304Z,26.50
2019-03-04T09:49:36.233Z,24.22
2019-03-04T09:52:11.373Z,24.22
2019-03-04T09:54:47.979Z,24.04
2019-03-04T09:57:28.002Z,26.49
2019-03-04T10:00:06.312Z,27.11
2019-03-04T10:02:47.387Z,26.26
2019-03-04T10:06:17.804Z,26.26
2019-03-04T10:09:30.998Z,25.70
2019-03-04T10:12:59.811Z,26.83
2019-03-04T10:16:18.888Z,28.41
2019-03-04T10:19:51.692Z,29.01
2019-03-04T10:22:54.397Z,30.24
2019-03-04T10:27:02.320Z,31.26
2019-03-04T10:30:49.364Z,30.87
2019-03-04T10:34:25.296Z,31.37
2019-03-04T10:37:57.883Z,31.81
2019-03-04T10:41:24.394Z,29.44
2019-03-04T10:45:03.500Z,29.71
2019-03-04T10:47:50.407Z,29.60
2019-03-04T10:50:28.618Z,29.60
2019-03-04T10:53:03.721Z,29.36
2019-03-04T10:55:50.927Z,28.17
2019-03-04T10:58:35.290Z,27.32
2019-03-04T11:01:17.910Z,26.46
2019-03-04T11:03:56.294Z,26.46
2019-03-04T11:07:28.226Z,26.12
2019-03-04T11:09:24.499Z,26.59
2019-03-04T11:11:59.277Z,26.59
2019-03-04T11:14:38.455Z,27.18
2019-03-04T11:17:18.331Z,27.13
2019-03-04T11:20:12.954Z,25.34
2019-03-04T11:22:54.240Z,23.48
2019-03-04T11:25:30.900Z,23.48
2019-03-04T11:28:08.443Z,24.11
2019-03-04T11:30:56.051Z,25.03
2019-03-04T11:33:42.765Z,27.32
2019-03-04T11:36:17.704Z,26.99
2019-03-04T11:39:02.453Z,27.73
2019-03-04T11:41:38.981Z,28.59
2019-03-04T11:44:17.146Z,29.58
2019-03-04T11:46:54.676Z,28.56
2019-03-04T11:49:27.930Z,24.54
2019-03-04T11:52:01.136Z,24.54
2019-03-04T11:59:52.297Z,26.01
2019-03-04T12:02:27.768Z,22.55
2019-03-04T12:05:08.216Z,21.90
2019-03-04T12:07:43.320Z,21.90
2019-03-04T12:10:24.383Z,21.19
2019-03-04T12:13:07.806Z,20.74
2019-03-04T12:15:51.599Z,19.14
2019-03-04T12:18:29.617Z,19.14
2019-03-04T12:21:12.394Z,20.40
2019-03-04T12:23:47.394Z,21.22
2019-03-04T12:26:23.465Z,20.61
2019-03-04T12:29:01.676Z,22.29
2019-03-04T12:31:42.930Z,23.61
2019-03-04T12:34:26.427Z,26.93
2019-03-04T12:37:12.910Z,26.93
2019-03-04T12:39:46.287Z,26.50
2019-03-04T12:42:21.359Z,25.78
2019-03-04T12:44:58.566Z,28.04
2019-03-04T12:47:34.293Z,29.78
2019-03-04T12:50:12.790Z,30.89
2019-03-04T12:53:09.638Z,32.08
2019-03-04T12:56:01.890Z,33.11
2019-03-04T12:58:35.789Z,33.12
2019-03-04T13:01:10.240Z,33.66
2019-03-04T13:03:44.894Z,34.06
2019-03-04T13:06:19.343Z,34.04
2019-03-04T13:08:53.900Z,34.04
2019-03-04T13:11:28.454Z,34.33
2019-03-04T13:14:03.103Z,36.56
2019-03-04T13:16:37.879Z,38.63
2019-03-04T13:19:13.287Z,39.00
2019-03-04T13:21:47.857Z,38.34
2019-03-04T13:24:21.017Z,37.31
2019-03-04T13:26:55.293Z,38.09
2019-03-04T13:29:29.950Z,38.18
2019-03-04T13:32:04.289Z,38.12
2019-03-04T13:34:38.762Z,37.89
2019-03-04T13:37:13.138Z,38.30
2019-03-04T13:39:47.754Z,38.41
2019-03-04T13:42:20.809Z,38.37
2019-03-04T13:44:55.290Z,38.44
2019-03-04T13:47:29.950Z,38.44
2019-03-04T13:50:04.294Z,38.34
2019-03-04T13:52:39.003Z,38.21
2019-03-04T13:55:14.290Z,38.26
2019-03-04T13:57:48.939Z,38.26
2019-03-04T14:00:23.762Z,38.44
2019-03-04T14:02:58.129Z,38.53
2019-03-04T14:05:32.783Z,38.11
2019-03-04T14:08:06.409Z,38.62
2019-03-04T14:10:40.797Z,38.98
2019-03-04T14:13:15.493Z,39.10
2019-03-04T14:15:50.278Z,38.89
2019-03-04T14:18:24.707Z,38.86
2019-03-04T14:20:57.816Z,38.86
2019-03-04T14:23:32.115Z,38.85
2019-03-04T14:26:06.887Z,38.79
2019-03-04T14:28:39.945Z,38.49
2019-03-04T14:31:14.274Z,38.08
2019-03-04T14:33:55.113Z,37.10
2019-03-04T14:36:29.808Z,37.23
2019-03-04T14:39:04.573Z,36.66
2019-03-04T14:41:45.678Z,35.54
2019-03-04T14:44:20.253Z,35.45
2019-03-04T14:46:56.278Z,35.46
2019-03-04T14:49:30.758Z,35.60
2019-03-04T14:52:04.056Z,35.17
2019-03-04T14:54:38.278Z,34.95
2019-03-04T14:57:12.730Z,34.44
2019-03-04T14:59:47.143Z,34.69
2019-03-04T15:02:21.644Z,35.09
2019-03-04T15:04:56.987Z,35.09
2019-03-04T15:07:31.723Z,35.31
2019-03-04T15:10:06.290Z,35.45
2019-03-04T15:12:40.746Z,35.65
2019-03-04T15:15:14.606Z,35.77
2019-03-04T15:17:49.279Z,35.54
2019-03-04T15:20:24.691Z,35.92
2019-03-04T15:22:59.284Z,35.92
2019-03-04T15:25:36.284Z,36.00
2019-03-04T15:28:17.607Z,36.17
2019-03-04T15:31:00.025Z,35.95
2019-03-04T15:33:36.279Z,33.03
2019-03-04T15:36:12.956Z,30.05
2019-03-04T15:38:49.152Z,28.92
2019-03-04T15:41:25.290Z,28.92
2019-03-04T15:44:00.143Z,28.30
2019-03-04T15:46:35.967Z,27.62
2019-03-04T15:49:10.795Z,29.99
2019-03-04T15:51:45.463Z,32.01
2019-03-04T15:54:20.289Z,33.42
2019-03-04T15:57:00.278Z,33.90
2019-03-04T15:59:36.269Z,34.65
2019-03-04T16:02:13.271Z,35.56
2019-03-04T16:04:47.871Z,36.28
2019-03-04T16:07:22.276Z,36.28
2019-03-04T16:09:56.958Z,36.38
2019-03-04T16:12:33.266Z,36.71
2019-03-04T16:15:11.775Z,37.45
2019-03-04T16:17:46.617Z,41.51
2019-03-04T16:20:21.323Z,41.93
2019-03-04T16:22:56.313Z,42.71
2019-03-04T16:25:33.801Z,47.09
2019-03-04T16:28:16.664Z,50.30
2019-03-04T16:30:51.900Z,52.23
2019-03-04T16:33:27.404Z,55.02
2019-03-04T16:36:07.473Z,55.02
2019-03-04T16:38:42.407Z,54.97
2019-03-04T16:41:21.281Z,55.16
2019-03-04T16:43:56.263Z,55.22
2019-03-04T16:46:31.140Z,54.42
2019-03-04T16:49:07.301Z,54.53
2019-03-04T16:51:43.958Z,54.55
2019-03-04T16:54:20.946Z,54.96
2019-03-04T16:56:56.500Z,54.96
2019-03-04T16:59:31.323Z,54.95
2019-03-04T17:02:07.285Z,55.07
2019-03-04T17:04:44.968Z,54.77
2019-03-04T17:07:36.726Z,54.75
2019-03-04T17:10:15.020Z,54.75
2019-03-04T17:12:51.725Z,54.51
2019-03-04T17:15:35.260Z,54.67
2019-03-04T17:18:17.569Z,54.50
2019-03-04T17:20:52.283Z,55.28
2019-03-04T17:23:31.949Z,55.95
2019-03-04T17:26:06.417Z,56.20
2019-03-04T17:28:44.285Z,56.55
2019-03-04T17:31:25.166Z,57.11
2019-03-04T17:34:00.517Z,57.23
2019-03-04T17:36:40.259Z,57.68
2019-03-04T17:39:14.947Z,57.78
2019-03-04T17:41:49.944Z,57.85
2019-03-04T17:44:26.279Z,57.67
2019-03-04T17:47:01.287Z,57.67
2019-03-04T17:49:38.875Z,57.47
2019-03-04T17:52:13.310Z,56.92
2019-03-04T17:54:48.287Z,57.10
2019-03-04T17:57:25.038Z,57.10
2019-03-04T17:59:59.770Z,58.27
2019-03-04T18:02:34.284Z,58.27
2019-03-04T18:05:10.401Z,58.82
2019-03-04T18:07:45.338Z,60.16
2019-03-04T18:10:20.649Z,60.35
2019-03-04T18:12:57.610Z,60.37
2019-03-04T18:15:32.274Z,61.39
2019-03-04T18:18:07.252Z,62.38
2019-03-04T18:20:42.275Z,62.73
2019-03-04T18:23:17.130Z,63.29
2019-03-04T18:26:02.413Z,62.71
2019-03-04T18:29:24.128Z,62.30
2019-03-04T18:32:54.778Z,61.59
2019-03-04T18:35:57.826Z,60.93
2019-03-04T18:39:14.947Z,61.54
2019-03-04T18:42:34.427Z,62.17
2019-03-04T18:46:31.816Z,62.17
2019-03-04T18:49:05.141Z,62.99
2019-03-04T18:51:41.137Z,62.57
2019-03-04T18:54:21.627Z,62.57
2019-03-04T18:56:56.611Z,62.21
2019-03-04T18:59:32.878Z,62.68
2019-03-04T19:02:15.946Z,62.91
2019-03-04T19:04:50.667Z,62.46
2019-03-04T19:07:27.372Z,62.14
2019-03-04T19:10:02.330Z,62.12
2019-03-04T19:12:41.308Z,61.48
2019-03-04T19:15:16.325Z,61.14
2019-03-04T19:17:52.575Z,60.96
2019-03-04T19:20:35.715Z,60.69
2019-03-04T19:23:09.291Z,60.07
2019-03-04T19:25:48.162Z,59.92
2019-03-04T19:28:28.284Z,59.82
2019-03-04T19:31:03.269Z,59.59
2019-03-04T19:33:37.957Z,59.74
2019-03-04T19:36:12.999Z,60.82
2019-03-04T19:38:48.924Z,60.94
2019-03-04T19:41:25.290Z,60.94
2019-03-04T19:44:00.146Z,61.62
2019-03-04T19:46:35.278Z,62.31
2019-03-04T19:49:13.893Z,62.81
2019-03-04T19:51:48.534Z,62.79
2019-03-04T19:54:23.685Z,62.94
2019-03-04T19:57:00.287Z,63.36
2019-03-04T19:59:35.290Z,63.07
2019-03-04T20:02:12.488Z,62.81
2019-03-04T20:04:48.314Z,62.43
2019-03-04T20:07:23.952Z,62.06
2019-03-04T20:10:00.342Z,61.73
2019-03-04T20:12:36.294Z,61.37
2019-03-04T20:15:14.939Z,61.14
2019-03-04T20:17:48.304Z,59.73
2019-03-04T20:20:25.746Z,59.73
2019-03-04T20:23:12.394Z,60.17
2019-03-04T20:25:54.110Z,60.06
2019-03-04T20:28:30.578Z,59.89
2019-03-04T20:31:11.314Z,59.87
2019-03-04T20:33:51.304Z,59.96
2019-03-04T20:36:26.923Z,59.94
2019-03-04T20:39:05.360Z,59.47
2019-03-04T20:41:40.338Z,59.47
2019-03-04T20:44:17.311Z,59.48
2019-03-04T20:46:53.451Z,59.90
2019-03-04T20:49:30.120Z,59.88
2019-03-04T20:52:06.288Z,60.05
2019-03-04T20:54:41.287Z,59.52
2019-03-04T20:57:16.299Z,58.91
2019-03-04T20:59:51.260Z,58.96
2019-03-04T21:02:26.411Z,59.27
2019-03-04T21:05:01.504Z,59.24
2019-03-04T21:07:37.775Z,58.76
2019-03-04T21:10:11.871Z,58.68
2019-03-04T21:12:48.103Z,58.21
2019-03-04T21:15:23.603Z,57.96
2019-03-04T21:17:59.630Z,58.15
2019-03-04T21:20:34.459Z,58.19
2019-03-04T21:23:11.615Z,57.93
2019-03-04T21:26:24.273Z,57.66
2019-03-04T21:29:39.986Z,58.04
2019-03-04T21:32:34.987Z,59.01
2019-03-04T21:36:07.771Z,59.01
2019-03-04T21:38:41.053Z,59.01
2019-03-04T21:42:02.424Z,59.42
2019-03-04T21:46:08.361Z,59.42
2019-03-04T21:48:53.596Z,60.05
2019-03-04T21:52:19.726Z,60.86
2019-03-04T21:54:51.338Z,60.60
2019-03-04T21:57:50.718Z,60.60
2019-03-04T22:00:42.311Z,60.55
2019-03-04T22:03:24.512Z,60.62
2019-03-04T22:05:59.726Z,60.41
2019-03-04T22:08:35.297Z,60.47
2019-03-04T22:11:11.146Z,60.51
2019-03-04T22:13:45.767Z,60.36
2019-03-04T22:16:20.289Z,60.49
2019-03-04T22:18:57.295Z,60.49
2019-03-04T22:21:31.790Z,60.15
2019-03-04T22:24:06.404Z,60.06
2019-03-04T22:26:41.098Z,60.17
2019-03-04T22:29:17.877Z,60.57
2019-03-04T22:31:53.282Z,60.79
2019-03-04T22:34:30.939Z,60.67
2019-03-04T22:37:16.722Z,60.83
2019-03-04T22:39:56.307Z,60.78
2019-03-04T22:42:30.812Z,60.66
2019-03-04T22:45:05.983Z,60.22
2019-03-04T22:47:40.733Z,60.50
2019-03-04T22:50:18.313Z,60.50
2019-03-04T22:52:54.288Z,60.79
2019-03-04T22:55:32.550Z,61.24
2019-03-04T22:58:09.142Z,61.45
2019-03-04T23:01:43.268Z,61.48
2019-03-04T23:05:00.941Z,61.48
2019-03-04T23:07:54.810Z,61.55
2019-03-04T23:10:40.824Z,61.32
2019-03-04T23:14:20.295Z,61.30
2019-03-04T23:17:15.917Z,61.32
2019-03-04T23:19:51.334Z,61.32
2019-03-04T23:22:25.901Z,61.15
2019-03-04T23:25:00.332Z,60.94
2019-03-04T23:27:34.949Z,60.41
2019-03-04T23:30:12.702Z,60.30
2019-03-04T23:32:47.145Z,60.24
2019-03-04T23:35:21.718Z,60.37
2019-03-04T23:37:56.287Z,60.37
2019-03-04T23:40:30.882Z,60.24
2019-03-04T23:43:04.077Z,59.98
2019-03-04T23:45:38.326Z,59.97
2019-03-04T23:48:12.922Z,59.97
2019-03-04T23:50:45.794Z,59.81
2019-03-04T23:53:20.265Z,59.77
2019-03-04T23:55:54.757Z,59.87
2019-03-04T23:58:27.871Z,59.90
